createdAt,value
2019-02-07T00:02:07.872Z,25.47
2019-02-07T00:04:34.547Z,25.03
2019-02-07T00:07:00.749Z,26.37
2019-02-07T00:09:27.416Z,25.10
2019-02-07T00:11:53.751Z,24.23
2019-02-07T00:14:41.773Z,26.30
2019-02-07T00:17:07.983Z,24.10
2019-02-07T00:19:34.523Z,24.37
2019-02-07T00:22:00.887Z,25.53
2019-02-07T00:24:27.103Z,25.23
2019-02-07T00:26:53.342Z,24.27
2019-02-07T00:29:19.595Z,25.37
2019-02-07T00:31:45.828Z,24.00
2019-02-07T00:34:12.114Z,24.07
2019-02-07T00:36:38.316Z,24.07
2019-02-07T00:39:05.439Z,23.10
2019-02-07T00:41:32.722Z,24.20
2019-02-07T00:43:59.051Z,23.00
2019-02-07T00:46:25.823Z,22.20
2019-02-07T00:48:52.192Z,23.27
2019-02-07T00:51:18.421Z,24.07
2019-02-07T00:53:44.673Z,22.07
2019-02-07T00:56:10.914Z,23.25
2019-02-07T00:58:37.234Z,21.83
2019-02-07T01:01:04.476Z,21.70
2019-02-07T01:03:30.713Z,22.03
2019-02-07T01:05:57.477Z,21.20
2019-02-07T01:08:23.722Z,21.27
2019-02-07T01:10:50.535Z,22.70
2019-02-07T01:13:17.286Z,20.00
2019-02-07T01:15:43.527Z,22.80
2019-02-07T01:18:10.152Z,23.10
2019-02-07T01:20:37.305Z,21.97
2019-02-07T01:23:03.733Z,22.47
2019-02-07T01:25:30.060Z,20.97
2019-02-07T01:27:56.599Z,22.40
2019-02-07T01:30:24.357Z,23.03
2019-02-07T01:32:50.784Z,21.83
2019-02-07T01:35:17.235Z,21.70
2019-02-07T01:37:43.561Z,22.07
2019-02-07T01:40:17.910Z,22.90
2019-02-07T01:42:44.471Z,21.97
2019-02-07T01:45:13.996Z,22.43
2019-02-07T01:47:40.214Z,21.77
2019-02-07T01:50:09.931Z,22.00
2019-02-07T01:52:36.371Z,21.73
2019-02-07T01:55:04.251Z,23.77
2019-02-07T01:57:30.511Z,22.20
2019-02-07T01:59:56.728Z,22.50
2019-02-07T02:02:22.981Z,23.03
2019-02-07T02:04:49.199Z,22.57
2019-02-07T02:07:15.426Z,21.05
2019-02-07T02:09:41.670Z,21.97
2019-02-07T02:12:08.103Z,21.75
2019-02-07T02:14:34.773Z,22.75
2019-02-07T02:17:00.993Z,22.32
2019-02-07T02:19:27.518Z,20.40
2019-02-07T02:21:53.851Z,23.18
2019-02-07T02:24:20.313Z,22.07
2019-02-07T02:26:46.531Z,22.87
2019-02-07T02:29:12.960Z,22.10
2019-02-07T02:31:39.199Z,22.60
2019-02-07T02:34:05.651Z,20.10
2019-02-07T02:36:31.902Z,21.17
2019-02-07T02:38:58.466Z,19.85
2019-02-07T02:41:24.816Z,21.20
2019-02-07T02:43:51.410Z,21.35
2019-02-07T02:46:17.667Z,21.82
2019-02-07T02:48:43.922Z,21.93
2019-02-07T02:51:10.161Z,20.75
2019-02-07T02:53:36.413Z,21.25
2019-02-07T02:56:03.054Z,21.85
2019-02-07T02:58:29.322Z,20.55
2019-02-07T03:01:00.008Z,20.68
2019-02-07T03:03:28.503Z,22.40
2019-02-07T03:06:02.243Z,21.87
2019-02-07T03:08:32.879Z,21.60
2019-02-07T03:11:19.036Z,20.85
2019-02-07T03:13:49.719Z,22.85
2019-02-07T03:16:34.535Z,21.68
2019-02-07T03:19:15.001Z,21.55
2019-02-07T03:21:46.352Z,21.93
2019-02-07T03:24:29.624Z,21.82
2019-02-07T03:27:12.784Z,22.07
2019-02-07T03:29:56.000Z,23.35
2019-02-07T03:32:33.148Z,21.15
2019-02-07T03:37:35.956Z,20.50
2019-02-07T03:40:07.622Z,20.57
2019-02-07T03:42:41.652Z,22.82
2019-02-07T03:45:13.492Z,22.93
2019-02-07T03:47:44.524Z,20.88
2019-02-07T03:50:18.283Z,22.80
2019-02-07T03:52:52.499Z,21.73
2019-02-07T03:55:20.982Z,21.17
2019-02-07T03:57:54.928Z,20.12
2019-02-07T04:00:39.798Z,20.20
2019-02-07T04:03:08.045Z,21.65
2019-02-07T04:05:53.073Z,21.05
2019-02-07T04:08:38.424Z,20.12
2019-02-07T04:11:10.147Z,20.77
2019-02-07T04:13:46.923Z,21.17
2019-02-07T04:16:21.121Z,20.65
2019-02-07T04:19:05.788Z,21.00
2019-02-07T04:21:50.593Z,20.70
2019-02-07T04:24:18.790Z,21.45
2019-02-07T04:26:47.004Z,19.10
2019-02-07T04:29:32.144Z,21.23
2019-02-07T04:32:12.747Z,19.85
2019-02-07T04:34:50.371Z,21.48
2019-02-07T04:37:24.189Z,20.55
2019-02-07T04:39:52.653Z,21.85
2019-02-07T04:42:26.573Z,20.02
2019-02-07T04:45:03.286Z,20.97
2019-02-07T04:47:31.439Z,20.25
2019-02-07T04:50:02.323Z,19.95
2019-02-07T04:52:47.144Z,19.23
2019-02-07T04:55:32.400Z,18.57
2019-02-07T04:58:09.873Z,19.85
2019-02-07T05:00:50.435Z,18.62
2019-02-07T05:03:35.051Z,19.37
2019-02-07T05:06:15.267Z,20.10
2019-02-07T05:08:43.412Z,19.10
2019-02-07T05:11:28.265Z,18.80
2019-02-07T05:14:05.511Z,18.87
2019-02-07T05:16:39.778Z,19.52
2019-02-07T05:19:32.597Z,17.98
2019-02-07T05:22:26.117Z,17.40
2019-02-07T05:25:04.505Z,18.23
2019-02-07T05:27:35.012Z,17.80
2019-02-07T05:30:05.661Z,19.90
2019-02-07T05:32:36.160Z,17.35
2019-02-07T05:35:13.146Z,17.98
2019-02-07T05:37:44.887Z,17.37
2019-02-07T05:40:13.705Z,17.10
2019-02-07T05:43:01.839Z,16.07
2019-02-07T05:45:39.529Z,18.17
2019-02-07T05:48:26.715Z,17.50
2019-02-07T05:50:55.128Z,17.05
2019-02-07T05:53:26.590Z,17.45
2019-02-07T05:55:57.971Z,17.12
2019-02-07T05:58:41.759Z,17.90
2019-02-07T06:01:21.909Z,17.48
2019-02-07T06:03:53.117Z,16.60
2019-02-07T06:06:21.395Z,17.02
2019-02-07T06:08:52.683Z,17.60
2019-02-07T06:11:23.924Z,16.23
2019-02-07T06:13:52.653Z,15.73
2019-02-07T06:16:27.118Z,15.47
2019-02-07T06:18:58.780Z,16.30
2019-02-07T06:21:37.031Z,15.18
2019-02-07T06:24:16.951Z,15.25
2019-02-07T06:26:47.892Z,15.13
2019-02-07T06:29:52.448Z,14.38
2019-02-07T06:32:23.701Z,14.80
2019-02-07T06:34:54.960Z,14.38
2019-02-07T06:37:26.500Z,15.48
2019-02-07T06:40:10.522Z,14.87
2019-02-07T06:42:55.666Z,14.38
2019-02-07T06:45:24.213Z,14.47
2019-02-07T06:48:09.405Z,14.15
2019-02-07T06:50:43.811Z,13.43
2019-02-07T06:53:14.864Z,13.78
2019-02-07T06:55:43.457Z,13.30
2019-02-07T06:58:24.174Z,14.35
2019-02-07T07:00:55.165Z,13.60
2019-02-07T07:03:32.693Z,13.78
2019-02-07T07:06:17.561Z,13.43
2019-02-07T07:09:02.436Z,14.70
2019-02-07T07:11:45.832Z,13.38
2019-02-07T07:14:20.238Z,13.08
2019-02-07T07:16:49.032Z,14.03
2019-02-07T07:19:29.237Z,13.40
2019-02-07T07:22:09.230Z,13.95
2019-02-07T07:24:37.951Z,14.83
2019-02-07T07:27:09.475Z,14.45
2019-02-07T07:29:44.116Z,14.20
2019-02-07T07:32:31.237Z,14.55
2019-02-07T07:35:02.321Z,13.90
2019-02-07T07:37:42.973Z,14.80
2019-02-07T07:40:29.872Z,14.38
2019-02-07T07:43:15.051Z,14.40
2019-02-07T07:45:56.427Z,14.15
2019-02-07T07:48:37.619Z,15.00
2019-02-07T07:51:06.573Z,14.93
2019-02-07T07:53:38.230Z,13.00
2019-02-07T07:56:16.027Z,13.48
2019-02-07T07:58:45.107Z,14.10
2019-02-07T08:01:16.478Z,14.55
2019-02-07T08:03:45.700Z,13.15
2019-02-07T08:06:14.795Z,14.78
2019-02-07T08:08:45.941Z,12.90
2019-02-07T08:11:23.641Z,13.10
2019-02-07T08:14:10.880Z,13.78
2019-02-07T08:16:48.145Z,14.23
2019-02-07T08:19:31.891Z,13.22
2019-02-07T08:22:19.821Z,14.25
2019-02-07T08:24:57.310Z,14.60
2019-02-07T08:27:28.562Z,14.70
2019-02-07T08:30:06.489Z,14.18
2019-02-07T08:32:50.112Z,13.95
2019-02-07T08:35:41.053Z,15.45
2019-02-07T08:38:18.176Z,15.28
2019-02-07T08:40:53.523Z,14.85
2019-02-07T08:43:38.677Z,15.58
2019-02-07T08:46:23.695Z,13.43
2019-02-07T08:48:51.890Z,13.83
2019-02-07T08:54:29.381Z,14.38
2019-02-07T08:57:09.834Z,13.75
2019-02-07T08:59:41.098Z,13.38
2019-02-07T09:02:26.208Z,14.75
2019-02-07T09:04:54.935Z,14.43
2019-02-07T09:07:38.303Z,13.28
2019-02-07T09:10:16.789Z,14.58
2019-02-07T09:12:48.310Z,13.80
2019-02-07T09:15:25.679Z,13.28
2019-02-07T09:18:09.783Z,14.20
2019-02-07T09:20:30.742Z,13.83
2019-02-07T09:22:59.176Z,13.75
2019-02-07T09:25:44.585Z,13.95
2019-02-07T09:28:21.881Z,13.20
2019-02-07T09:30:53.830Z,12.18
2019-02-07T09:33:26.847Z,13.00
2019-02-07T09:36:05.347Z,12.75
2019-02-07T09:38:32.455Z,11.78
2019-02-07T09:41:17.208Z,12.43
2019-02-07T09:43:51.562Z,12.40
2019-02-07T09:46:29.509Z,12.75
2019-02-07T09:49:14.664Z,12.30
2019-02-07T09:51:52.182Z,13.78
2019-02-07T09:54:35.548Z,13.00
2019-02-07T09:57:20.372Z,12.27
2019-02-07T09:59:54.839Z,11.53
2019-02-07T10:02:34.656Z,12.47
2019-02-07T10:05:10.984Z,12.47
2019-02-07T10:07:51.369Z,12.93
2019-02-07T10:10:31.946Z,12.50
2019-02-07T10:13:02.969Z,11.70
2019-02-07T10:15:48.360Z,12.67
2019-02-07T10:18:33.576Z,12.50
2019-02-07T10:21:02.154Z,12.27
2019-02-07T10:23:36.839Z,11.67
2019-02-07T10:26:21.690Z,12.15
2019-02-07T10:28:50.126Z,11.77
2019-02-07T10:31:18.549Z,12.50
2019-02-07T10:34:05.399Z,12.90
2019-02-07T10:36:49.345Z,12.77
2019-02-07T10:39:17.493Z,12.20
2019-02-07T10:41:49.217Z,12.73
2019-02-07T10:44:34.383Z,12.30
2019-02-07T10:47:06.653Z,12.97
2019-02-07T10:49:35.207Z,12.70
2019-02-07T10:52:04.079Z,12.60
2019-02-07T10:54:36.236Z,13.00
2019-02-07T10:57:21.002Z,12.33
2019-02-07T11:00:07.775Z,12.57
2019-02-07T11:02:42.628Z,13.57
2019-02-07T11:05:22.450Z,13.23
2019-02-07T11:08:00.089Z,14.10
2019-02-07T11:10:45.458Z,14.30
2019-02-07T11:13:22.766Z,13.23
2019-02-07T11:15:57.211Z,12.73
2019-02-07T11:18:37.737Z,12.43
2019-02-07T11:21:21.478Z,13.50
2019-02-07T11:23:52.725Z,14.03
2019-02-07T11:26:35.695Z,13.30
2019-02-07T11:29:07.204Z,13.87
2019-02-07T11:31:48.618Z,14.17
2019-02-07T11:34:17.011Z,13.90
2019-02-07T11:37:02.443Z,14.80
2019-02-07T11:39:39.763Z,13.97
2019-02-07T11:42:08.744Z,14.00
2019-02-07T11:44:38.222Z,13.07
2019-02-07T11:47:19.070Z,12.90
2019-02-07T11:50:03.989Z,14.30
2019-02-07T11:52:38.039Z,13.80
2019-02-07T11:55:11.297Z,14.27
2019-02-07T11:57:42.927Z,13.73
2019-02-07T12:00:32.888Z,14.70
2019-02-07T12:03:01.285Z,14.40
2019-02-07T12:05:29.715Z,14.20
2019-02-07T12:07:58.125Z,13.60
2019-02-07T12:10:47.637Z,14.30
2019-02-07T12:13:18.974Z,14.03
2019-02-07T12:15:54.292Z,14.43
2019-02-07T12:18:31.767Z,14.17
2019-02-07T12:21:15.632Z,15.80
2019-02-07T12:23:44.320Z,13.50
2019-02-07T12:26:12.687Z,14.37
2019-02-07T12:28:53.660Z,13.87
2019-02-07T12:31:25.217Z,13.63
2019-02-07T12:34:05.989Z,14.20
2019-02-07T12:36:37.888Z,13.00
2019-02-07T12:39:20.205Z,13.10
2019-02-07T12:41:48.710Z,13.30
2019-02-07T12:44:17.215Z,13.00
2019-02-07T12:46:45.480Z,12.27
2019-02-07T12:49:29.017Z,11.83
2019-02-07T12:51:50.748Z,10.53
2019-02-07T12:54:36.246Z,11.50
2019-02-07T12:57:05.311Z,11.90
2019-02-07T12:59:46.012Z,11.33
2019-02-07T13:02:20.275Z,10.63
2019-02-07T13:04:54.747Z,10.67
2019-02-07T13:07:29.141Z,11.43
2019-02-07T13:10:04.044Z,11.27
2019-02-07T13:12:52.428Z,11.30
2019-02-07T13:15:21.451Z,10.90
2019-02-07T13:17:59.194Z,10.17
2019-02-07T13:20:27.794Z,11.30
2019-02-07T13:23:14.470Z,10.07
2019-02-07T13:25:45.789Z,10.97
2019-02-07T13:28:15.620Z,10.97
2019-02-07T13:30:43.964Z,11.00
2019-02-07T13:33:21.298Z,10.77
2019-02-07T13:35:55.489Z,11.37
2019-02-07T13:38:32.791Z,11.20
2019-02-07T13:41:06.975Z,11.07
2019-02-07T13:43:37.986Z,9.73
2019-02-07T13:46:07.005Z,9.10
2019-02-07T13:48:35.405Z,9.00
2019-02-07T13:51:04.148Z,7.40
2019-02-07T13:53:35.227Z,7.13
2019-02-07T13:56:22.432Z,6.67
2019-02-07T13:58:53.441Z,5.33
2019-02-07T14:01:21.793Z,5.47
2019-02-07T14:04:08.239Z,4.50
2019-02-07T14:06:53.620Z,4.50
2019-02-07T14:09:34.141Z,4.10
2019-02-07T14:12:08.732Z,4.13
2019-02-07T14:14:37.260Z,3.83
2019-02-07T14:17:05.576Z,3.57
2019-02-07T14:19:39.601Z,4.40
2019-02-07T14:22:25.850Z,3.20
2019-02-07T14:25:00.817Z,3.63
2019-02-07T14:27:29.774Z,4.03
2019-02-07T14:29:58.222Z,4.17
2019-02-07T14:32:27.451Z,5.00
2019-02-07T14:34:59.042Z,5.33
2019-02-07T14:37:30.701Z,5.40
2019-02-07T14:39:59.230Z,5.77
2019-02-07T14:42:33.519Z,5.23
2019-02-07T14:45:11.643Z,5.30
2019-02-07T14:47:38.106Z,4.70
2019-02-07T14:50:14.607Z,5.13
2019-02-07T14:52:34.858Z,5.30
2019-02-07T14:55:06.294Z,5.53
2019-02-07T14:57:32.960Z,4.70
2019-02-07T15:00:01.414Z,4.83
2019-02-07T15:02:27.926Z,4.90
2019-02-07T15:04:55.510Z,4.37
2019-02-07T15:07:22.113Z,4.50
2019-02-07T15:09:53.933Z,4.60
2019-02-07T15:12:23.306Z,3.80
2019-02-07T15:14:49.683Z,3.70
2019-02-07T15:17:16.007Z,3.40
2019-02-07T15:19:42.575Z,3.67
2019-02-07T15:22:09.009Z,3.20
2019-02-07T15:27:21.570Z,3.03
2019-02-07T15:29:50.337Z,3.20
2019-02-07T15:32:16.708Z,4.00
2019-02-07T15:34:43.929Z,3.53
2019-02-07T15:37:11.683Z,3.80
2019-02-07T15:39:38.365Z,4.20
2019-02-07T15:42:05.034Z,3.60
2019-02-07T15:44:31.648Z,4.27
2019-02-07T15:46:58.299Z,4.10
2019-02-07T15:49:25.690Z,3.60
2019-02-07T15:51:52.225Z,3.70
2019-02-07T15:54:20.097Z,3.50
2019-02-07T15:56:46.693Z,3.90
2019-02-07T15:59:15.012Z,3.20
2019-02-07T16:01:49.656Z,3.93
2019-02-07T16:04:18.038Z,3.30
2019-02-07T16:06:44.446Z,3.70
2019-02-07T16:09:13.742Z,3.40
2019-02-07T16:11:45.324Z,4.30
2019-02-07T16:14:12.102Z,3.50
2019-02-07T16:16:44.293Z,4.40
2019-02-07T16:19:10.580Z,4.47
2019-02-07T16:21:45.098Z,4.53
2019-02-07T16:24:07.665Z,4.50
2019-02-07T16:26:34.311Z,3.83
2019-02-07T16:29:00.636Z,3.70
2019-02-07T16:31:27.338Z,4.47
2019-02-07T16:33:54.277Z,3.47
2019-02-07T16:36:20.812Z,3.80
2019-02-07T16:38:47.533Z,4.50
2019-02-07T16:41:14.045Z,3.97
2019-02-07T16:43:40.717Z,3.97
2019-02-07T16:46:07.301Z,4.47
2019-02-07T16:48:33.844Z,3.77
2019-02-07T16:51:00.675Z,4.87
2019-02-07T16:53:28.991Z,3.77
2019-02-07T16:55:56.669Z,3.70
2019-02-07T16:58:23.592Z,4.20
2019-02-07T17:00:50.527Z,3.30
2019-02-07T17:03:17.001Z,3.60
2019-02-07T17:05:43.700Z,3.90
2019-02-07T17:08:11.059Z,3.53
2019-02-07T17:10:40.513Z,3.47
2019-02-07T17:13:12.945Z,4.10
2019-02-07T17:15:41.878Z,4.10
2019-02-07T17:18:09.374Z,3.40
2019-02-07T17:20:36.692Z,3.90
2019-02-07T17:23:03.705Z,3.43
2019-02-07T17:25:30.811Z,3.60
2019-02-07T17:27:57.420Z,3.57
2019-02-07T17:30:23.941Z,4.13
2019-02-07T17:32:54.276Z,3.40
2019-02-07T17:35:21.034Z,4.37
2019-02-07T17:37:47.761Z,2.80
2019-02-07T17:40:20.454Z,3.30
2019-02-07T17:42:47.121Z,3.30
2019-02-07T17:45:26.520Z,3.70
2019-02-07T17:47:53.289Z,4.03
2019-02-07T17:50:29.123Z,3.97
2019-02-07T17:52:55.959Z,3.90
2019-02-07T17:55:25.533Z,3.37
2019-02-07T17:57:53.145Z,3.50
2019-02-07T18:00:47.486Z,3.30
2019-02-07T18:03:23.896Z,3.97
2019-02-07T18:05:50.840Z,3.80
2019-02-07T18:08:20.454Z,4.13
2019-02-07T18:10:47.371Z,3.10
2019-02-07T18:13:14.476Z,4.27
2019-02-07T18:15:52.652Z,3.70
2019-02-07T18:18:23.256Z,2.93
2019-02-07T18:20:51.667Z,3.40
2019-02-07T18:23:23.072Z,3.40
2019-02-07T18:25:49.732Z,3.57
2019-02-07T18:28:17.932Z,3.70
2019-02-07T18:30:44.389Z,3.20
2019-02-07T18:33:10.907Z,3.80
2019-02-07T18:35:37.625Z,3.23
2019-02-07T18:38:04.537Z,4.25
2019-02-07T18:40:31.310Z,3.53
2019-02-07T18:42:59.829Z,3.50
2019-02-07T18:45:29.265Z,4.03
2019-02-07T18:47:57.952Z,3.50
2019-02-07T18:50:30.283Z,3.33
2019-02-07T18:52:58.846Z,4.37
2019-02-07T18:55:27.128Z,3.27
2019-02-07T18:57:54.033Z,3.17
2019-02-07T19:00:24.646Z,3.63
2019-02-07T19:02:55.977Z,3.33
2019-02-07T19:05:22.723Z,3.40
2019-02-07T19:07:49.570Z,3.87
2019-02-07T19:10:27.085Z,3.10
2019-02-07T19:12:54.126Z,3.23
2019-02-07T19:15:24.136Z,3.27
2019-02-07T19:17:50.639Z,3.50
2019-02-07T19:20:21.424Z,3.23
2019-02-07T19:22:48.575Z,3.33
2019-02-07T19:25:16.117Z,3.00
2019-02-07T19:27:42.583Z,3.40
2019-02-07T19:30:21.369Z,3.33
2019-02-07T19:32:48.209Z,3.20
2019-02-07T19:35:15.199Z,3.90
2019-02-07T19:37:43.323Z,3.70
2019-02-07T19:40:17.831Z,3.10
2019-02-07T19:42:50.593Z,3.80
2019-02-07T19:45:20.551Z,3.73
2019-02-07T19:47:47.412Z,4.00
2019-02-07T19:50:22.469Z,3.43
2019-02-07T19:52:49.938Z,3.73
2019-02-07T19:55:22.712Z,3.63
2019-02-07T19:57:49.684Z,3.50
2019-02-07T20:00:22.922Z,3.30
2019-02-07T20:03:11.145Z,3.33
2019-02-07T20:05:37.882Z,3.50
2019-02-07T20:08:04.660Z,3.50
2019-02-07T20:10:31.335Z,3.40
2019-02-07T20:12:58.492Z,4.87
2019-02-07T20:15:31.627Z,3.30
2019-02-07T20:17:59.891Z,2.63
2019-02-07T20:20:31.292Z,2.93
2019-02-07T20:22:57.793Z,2.50
2019-02-07T20:25:26.614Z,3.60
2019-02-07T20:27:53.554Z,3.70
2019-02-07T20:30:26.633Z,4.10
2019-02-07T20:32:53.239Z,3.70
2019-02-07T20:35:19.798Z,3.77
2019-02-07T20:37:46.240Z,3.60
2019-02-07T20:40:18.974Z,3.40
2019-02-07T20:42:46.219Z,3.30
2019-02-07T20:45:13.065Z,3.50
2019-02-07T20:47:39.829Z,3.40
2019-02-07T20:50:09.877Z,3.40
2019-02-07T20:52:36.541Z,3.43
2019-02-07T20:55:05.707Z,3.33
2019-02-07T20:57:32.006Z,2.90
2019-02-07T20:59:58.886Z,3.40
2019-02-07T21:02:25.699Z,5.70
2019-02-07T21:04:52.391Z,3.80
2019-02-07T21:07:20.355Z,3.23
2019-02-07T21:09:47.669Z,2.60
2019-02-07T21:12:20.363Z,2.73
2019-02-07T21:14:47.513Z,2.70
2019-02-07T21:17:13.909Z,2.43
2019-02-07T21:19:40.513Z,2.67
2019-02-07T21:22:18.206Z,2.30
2019-02-07T21:27:41.397Z,2.93
2019-02-07T21:30:11.544Z,2.20
2019-02-07T21:32:38.410Z,2.40
2019-02-07T21:35:08.722Z,2.67
2019-02-07T21:37:35.155Z,2.83
2019-02-07T21:40:02.217Z,3.03
2019-02-07T21:42:28.692Z,2.50
2019-02-07T21:44:55.304Z,2.50
2019-02-07T21:47:21.691Z,2.60
2019-02-07T21:49:48.023Z,2.93
2019-02-07T21:52:14.545Z,2.40
2019-02-07T21:54:43.703Z,2.70
2019-02-07T21:57:10.104Z,3.00
2019-02-07T21:59:36.775Z,3.13
2019-02-07T22:02:11.954Z,2.87
2019-02-07T22:04:38.649Z,3.40
2019-02-07T22:07:05.147Z,8.90
2019-02-07T22:09:31.683Z,3.57
2019-02-07T22:11:58.799Z,2.97
2019-02-07T22:14:28.015Z,3.20
2019-02-07T22:16:54.542Z,3.80
2019-02-07T22:19:21.363Z,3.43
2019-02-07T22:21:47.767Z,3.60
2019-02-07T22:24:14.281Z,3.23
2019-02-07T22:26:40.909Z,2.80
2019-02-07T22:29:07.216Z,3.23
2019-02-07T22:31:36.310Z,3.20
2019-02-07T22:34:03.764Z,3.57
2019-02-07T22:36:36.201Z,4.50
2019-02-07T22:39:05.623Z,3.00
2019-02-07T22:41:32.712Z,3.00
2019-02-07T22:44:00.078Z,2.80
2019-02-07T22:46:26.505Z,3.17
2019-02-07T22:48:57.897Z,3.30
2019-02-07T22:51:27.698Z,3.10
2019-02-07T22:53:54.139Z,3.70
2019-02-07T22:56:20.404Z,3.10
2019-02-07T22:58:47.553Z,3.17
2019-02-07T23:01:18.755Z,3.10
2019-02-07T23:03:45.948Z,3.30
2019-02-07T23:06:12.771Z,3.20
2019-02-07T23:08:40.100Z,2.80
2019-02-07T23:11:07.685Z,3.20
2019-02-07T23:13:34.398Z,3.10
2019-02-07T23:16:00.988Z,3.03
2019-02-07T23:18:27.707Z,3.70
2019-02-07T23:20:54.364Z,3.53
2019-02-07T23:23:21.578Z,3.60
2019-02-07T23:25:50.377Z,3.03
2019-02-07T23:28:20.004Z,3.13
2019-02-07T23:30:46.779Z,3.00
2019-02-07T23:33:13.762Z,3.20
2019-02-07T23:35:41.635Z,3.20
2019-02-07T23:38:08.042Z,3.50
2019-02-07T23:40:35.331Z,3.13
2019-02-07T23:43:06.007Z,2.50
2019-02-07T23:45:33.736Z,2.93
2019-02-07T23:48:00.324Z,2.93
2019-02-07T23:50:27.405Z,2.80
2019-02-07T23:52:53.989Z,3.13
2019-02-07T23:55:20.446Z,2.60
2019-02-07T23:57:47.673Z,2.57
